createdAt,value
2024-02-23T00:03:02.812Z,9.59
2024-02-23T00:06:37.873Z,9.67
2024-02-23T00:10:06.830Z,9.71
2024-02-23T00:13:53.927Z,9.74
2024-02-23T00:17:41.206Z,9.73
2024-02-23T00:21:28.102Z,9.77
2024-02-23T00:25:14.937Z,9.77
2024-02-23T00:28:43.355Z,9.80
2024-02-23T00:32:14.968Z,9.80
2024-02-23T00:35:22.831Z,9.82
2024-02-23T00:38:29.895Z,9.83
2024-02-23T00:42:16.680Z,9.83
2024-02-23T00:45:28.983Z,9.84
2024-02-23T00:48:36.408Z,9.85
2024-02-23T00:52:23.179Z,9.80
2024-02-23T00:55:51.578Z,9.80
2024-02-23T00:59:22.969Z,9.77
2024-02-23T01:03:09.695Z,9.76
2024-02-23T01:06:38.176Z,9.77
2024-02-23T01:10:07.228Z,9.80
2024-02-23T01:13:34.262Z,9.81
2024-02-23T01:17:05.545Z,9.82
2024-02-23T01:20:41.400Z,9.80
2024-02-23T01:24:12.586Z,9.84
2024-02-23T01:27:21.364Z,9.84
2024-02-23T01:30:35.068Z,9.88
2024-02-23T01:34:03.728Z,9.90
2024-02-23T01:37:30.783Z,9.93
2024-02-23T01:40:59.001Z,9.95
2024-02-23T01:44:42.079Z,9.98
2024-02-23T01:48:09.256Z,10.01
2024-02-23T01:51:56.154Z,10.05
2024-02-23T01:55:16.657Z,10.11
2024-02-23T01:59:03.381Z,10.14
2024-02-23T02:04:29.395Z,10.16
2024-02-23T02:07:03.853Z,10.15
2024-02-23T02:09:58.086Z,10.15
2024-02-23T02:13:01.500Z,10.14
2024-02-23T02:15:51.435Z,10.11
2024-02-23T02:18:24.612Z,10.14
2024-02-23T02:21:17.979Z,10.16
2024-02-23T02:23:49.480Z,10.18
2024-02-23T02:26:56.695Z,10.18
2024-02-23T02:29:46.002Z,10.19
2024-02-23T02:32:36.769Z,10.20
2024-02-23T02:35:27.442Z,10.21
2024-02-23T02:38:21.133Z,10.21
2024-02-23T02:41:12.138Z,10.22
2024-02-23T02:44:39.248Z,10.21
2024-02-23T02:47:47.291Z,10.17
2024-02-23T02:51:15.230Z,10.17
2024-02-23T02:54:02.751Z,10.15
2024-02-23T02:57:11.102Z,10.16
2024-02-23T03:00:18.046Z,10.11
2024-02-23T03:03:01.864Z,10.11
2024-02-23T03:05:31.280Z,10.10
2024-02-23T03:08:03.629Z,10.08
2024-02-23T03:10:37.658Z,10.08
2024-02-23T03:13:12.941Z,10.07
2024-02-23T03:15:41.702Z,10.05
2024-02-23T03:18:16.305Z,10.03
2024-02-23T03:20:46.023Z,10.02
2024-02-23T03:23:14.155Z,10.00
2024-02-23T03:25:41.963Z,9.99
2024-02-23T03:28:10.189Z,9.94
2024-02-23T03:30:38.624Z,9.87
2024-02-23T03:33:06.620Z,9.82
2024-02-23T03:35:34.313Z,9.80
2024-02-23T03:38:04.183Z,9.77
2024-02-23T03:40:31.559Z,9.76
2024-02-23T03:42:59.205Z,9.73
2024-02-23T03:45:48.549Z,9.72
2024-02-23T03:48:16.252Z,9.69
2024-02-23T03:50:43.782Z,9.66
2024-02-23T03:53:13.394Z,9.63
2024-02-23T03:55:40.746Z,9.61
2024-02-23T03:58:08.926Z,9.58
2024-02-23T04:00:36.372Z,9.56
2024-02-23T04:03:03.814Z,9.50
2024-02-23T04:05:31.496Z,9.45
2024-02-23T04:07:59.148Z,9.44
2024-02-23T04:10:26.519Z,9.44
2024-02-23T04:12:53.830Z,9.42
2024-02-23T04:15:21.188Z,9.38
2024-02-23T04:17:48.501Z,9.36
2024-02-23T04:20:15.703Z,9.34
2024-02-23T04:22:43.024Z,9.34
2024-02-23T04:25:10.261Z,9.31
2024-02-23T04:27:37.502Z,9.30
2024-02-23T04:30:06.578Z,9.31
2024-02-23T04:32:34.010Z,9.32
2024-02-23T04:35:01.412Z,9.33
2024-02-23T04:37:28.707Z,9.30
2024-02-23T04:39:55.997Z,9.25
2024-02-23T04:42:23.418Z,9.25
2024-02-23T04:44:51.049Z,9.26
2024-02-23T04:47:18.318Z,9.28
2024-02-23T04:49:45.743Z,9.30
2024-02-23T04:52:13.368Z,9.30
2024-02-23T04:54:40.695Z,9.30
2024-02-23T04:57:08.236Z,9.30
2024-02-23T04:59:35.855Z,9.30
2024-02-23T05:02:03.224Z,9.25
2024-02-23T05:04:30.472Z,9.20
2024-02-23T05:06:57.849Z,9.21
2024-02-23T05:09:25.159Z,9.22
2024-02-23T05:11:52.712Z,9.18
2024-02-23T05:14:20.553Z,9.15
2024-02-23T05:16:48.009Z,9.16
2024-02-23T05:19:15.479Z,9.17
2024-02-23T05:21:42.781Z,9.16
2024-02-23T05:24:10.151Z,9.14
2024-02-23T05:26:37.592Z,9.11
2024-02-23T05:29:05.415Z,9.08
2024-02-23T05:31:59.031Z,9.04
2024-02-23T05:34:26.322Z,9.01
2024-02-23T05:36:53.606Z,9.00
2024-02-23T05:39:21.006Z,9.00
2024-02-23T05:41:48.995Z,9.00
2024-02-23T05:44:16.321Z,9.01
2024-02-23T05:46:45.401Z,9.01
2024-02-23T05:49:14.228Z,9.01
2024-02-23T05:51:41.826Z,9.01
2024-02-23T05:54:10.486Z,9.00
2024-02-23T05:56:38.989Z,9.00
2024-02-23T05:59:06.606Z,9.01
2024-02-23T06:01:34.045Z,9.03
2024-02-23T06:04:01.390Z,9.03
2024-02-23T06:06:28.782Z,9.03
2024-02-23T06:08:56.312Z,9.03
2024-02-23T06:11:23.764Z,9.03
2024-02-23T06:13:51.106Z,9.04
2024-02-23T06:16:18.386Z,9.06
2024-02-23T06:18:45.901Z,9.05
2024-02-23T06:21:22.206Z,9.02
2024-02-23T06:23:49.210Z,8.99
2024-02-23T06:26:16.293Z,8.98
2024-02-23T06:28:43.781Z,9.00
2024-02-23T06:31:11.871Z,9.01
2024-02-23T06:33:39.428Z,9.04
2024-02-23T06:36:07.485Z,9.00
2024-02-23T06:38:35.187Z,8.98
2024-02-23T06:41:02.646Z,9.02
2024-02-23T06:43:30.889Z,9.04
2024-02-23T06:45:58.421Z,9.03
2024-02-23T06:48:29.190Z,9.05
2024-02-23T06:50:59.145Z,9.02
2024-02-23T06:53:30.125Z,9.01
2024-02-23T06:55:57.545Z,9.04
2024-02-23T06:58:27.430Z,9.06
2024-02-23T07:00:55.179Z,9.08
2024-02-23T07:03:22.343Z,9.11
2024-02-23T07:05:51.822Z,9.14
2024-02-23T07:08:20.228Z,9.13
2024-02-23T07:10:47.596Z,9.16
2024-02-23T07:13:15.018Z,9.20
2024-02-23T07:15:42.172Z,9.19
2024-02-23T07:18:10.566Z,9.18
2024-02-23T07:20:39.127Z,9.18
2024-02-23T07:23:14.852Z,9.18
2024-02-23T07:25:43.248Z,9.18
2024-02-23T07:28:12.595Z,9.11
2024-02-23T07:30:40.786Z,9.13
2024-02-23T07:33:09.094Z,9.18
2024-02-23T07:35:39.609Z,9.20
2024-02-23T07:38:10.415Z,9.24
2024-02-23T07:40:39.219Z,9.26
2024-02-23T07:43:10.669Z,9.30
2024-02-23T07:45:39.566Z,9.34
2024-02-23T07:48:10.610Z,9.34
2024-02-23T07:50:37.973Z,9.37
2024-02-23T07:53:06.542Z,9.41
2024-02-23T07:55:35.124Z,9.44
2024-02-23T07:59:03.865Z,9.49
2024-02-23T08:02:54.029Z,9.53
2024-02-23T08:06:42.055Z,9.52
2024-02-23T08:10:30.100Z,9.56
2024-02-23T08:14:19.991Z,9.58
2024-02-23T08:18:07.662Z,9.57
2024-02-23T08:21:55.695Z,9.57
2024-02-23T08:25:44.858Z,9.60
2024-02-23T08:33:18.474Z,9.52
2024-02-23T08:37:06.658Z,9.52
2024-02-23T08:40:54.992Z,9.56
2024-02-23T08:44:42.864Z,9.59
2024-02-23T08:48:30.971Z,9.65
2024-02-23T08:52:08.852Z,9.70
2024-02-23T08:55:38.712Z,9.66
2024-02-23T08:59:07.386Z,9.65
2024-02-23T09:02:34.941Z,9.70
2024-02-23T09:06:04.230Z,9.69
2024-02-23T09:09:12.658Z,9.77
2024-02-23T09:12:42.999Z,9.83
2024-02-23T09:16:30.966Z,9.85
2024-02-23T09:20:18.470Z,9.86
2024-02-23T09:24:06.423Z,9.87
2024-02-23T09:31:38.724Z,9.90
2024-02-23T09:38:19.693Z,9.96
2024-02-23T09:41:32.781Z,9.96
2024-02-23T09:44:45.309Z,9.98
2024-02-23T09:48:12.913Z,10.00
2024-02-23T09:51:40.377Z,10.02
2024-02-23T09:54:36.015Z,10.06
2024-02-23T09:57:49.127Z,10.08
2024-02-23T10:01:34.645Z,10.08
2024-02-23T10:05:01.827Z,10.03
2024-02-23T10:08:50.697Z,10.08
2024-02-23T10:12:18.489Z,10.14
2024-02-23T10:14:58.647Z,10.12
2024-02-23T10:17:31.660Z,10.10
2024-02-23T10:20:42.980Z,10.13
2024-02-23T10:23:17.355Z,10.16
2024-02-23T10:26:09.843Z,10.20
2024-02-23T10:28:58.868Z,10.22
2024-02-23T10:31:54.524Z,10.24
2024-02-23T10:34:48.245Z,10.27
2024-02-23T10:37:58.339Z,10.31
2024-02-23T10:41:26.911Z,10.36
2024-02-23T10:44:57.499Z,10.38
2024-02-23T10:48:17.382Z,10.40
2024-02-23T10:51:44.580Z,10.39
2024-02-23T10:54:57.272Z,10.40
2024-02-23T10:58:44.156Z,10.45
2024-02-23T11:02:32.252Z,10.46
2024-02-23T11:06:02.440Z,10.51
2024-02-23T11:09:49.159Z,10.56
2024-02-23T11:12:56.455Z,10.60
2024-02-23T11:16:32.239Z,10.63
2024-02-23T11:19:58.149Z,10.59
2024-02-23T11:23:25.707Z,10.50
2024-02-23T11:26:53.298Z,10.47
2024-02-23T11:30:05.517Z,10.44
2024-02-23T11:33:19.770Z,10.48
2024-02-23T11:36:49.742Z,10.46
2024-02-23T11:40:36.689Z,10.44
2024-02-23T11:43:45.187Z,10.46
2024-02-23T11:47:32.340Z,10.44
2024-02-23T11:50:59.533Z,10.42
2024-02-23T11:54:26.526Z,10.39
2024-02-23T11:57:56.596Z,10.37
2024-02-23T12:01:29.037Z,10.29
2024-02-23T12:04:40.429Z,10.31
2024-02-23T12:07:36.428Z,10.32
2024-02-23T12:11:01.019Z,10.38
2024-02-23T12:13:48.757Z,10.38
2024-02-23T12:16:47.917Z,10.42
2024-02-23T12:19:43.960Z,10.47
2024-02-23T12:22:39.563Z,10.49
2024-02-23T12:25:47.088Z,10.51
2024-02-23T12:28:54.129Z,10.53
2024-02-23T12:32:21.078Z,10.53
2024-02-23T12:35:09.055Z,10.57
2024-02-23T12:38:19.913Z,10.58
2024-02-23T12:41:09.348Z,10.58
2024-02-23T12:44:18.682Z,10.59
2024-02-23T12:47:11.954Z,10.60
2024-02-23T12:50:02.845Z,10.64
2024-02-23T12:52:56.229Z,10.69
2024-02-23T12:55:30.851Z,10.72
2024-02-23T12:58:27.637Z,10.73
2024-02-23T13:01:35.785Z,10.70
2024-02-23T13:04:46.339Z,10.65
2024-02-23T13:07:34.675Z,10.62
2024-02-23T13:11:01.673Z,10.62
2024-02-23T13:14:31.810Z,10.61
2024-02-23T13:17:21.613Z,10.65
2024-02-23T13:20:30.358Z,10.67
2024-02-23T13:23:54.209Z,10.70
2024-02-23T13:26:54.014Z,10.69
2024-02-23T13:29:28.740Z,10.72
2024-02-23T13:32:19.977Z,10.75
2024-02-23T13:35:07.905Z,10.76
2024-02-23T13:38:17.127Z,10.71
2024-02-23T13:41:26.221Z,10.69
2024-02-23T13:43:58.885Z,10.67
2024-02-23T13:47:09.932Z,10.67
2024-02-23T13:49:39.285Z,10.66
2024-02-23T13:55:22.804Z,10.56
2024-02-23T13:58:50.010Z,10.58
2024-02-23T14:02:37.600Z,10.64
2024-02-23T14:06:24.565Z,10.61
2024-02-23T14:10:12.868Z,10.58
2024-02-23T14:14:01.833Z,10.53
2024-02-23T14:17:48.921Z,10.51
2024-02-23T14:21:35.862Z,10.47
2024-02-23T14:25:22.839Z,10.51
2024-02-23T14:29:09.834Z,10.55
2024-02-23T14:32:56.732Z,10.60
2024-02-23T14:36:43.631Z,10.65
2024-02-23T14:40:30.385Z,10.71
2024-02-23T14:44:18.449Z,10.75
2024-02-23T14:48:11.487Z,10.80
2024-02-23T14:51:54.141Z,10.84
2024-02-23T14:55:21.532Z,10.87
2024-02-23T15:05:32.374Z,10.89
2024-02-23T15:09:19.094Z,10.87
2024-02-23T15:12:49.623Z,10.86
2024-02-23T15:16:17.802Z,10.81
2024-02-23T15:20:04.768Z,10.76
2024-02-23T15:23:51.829Z,10.73
2024-02-23T15:27:38.875Z,10.71
2024-02-23T15:31:08.813Z,10.72
2024-02-23T15:34:55.903Z,10.72
2024-02-23T15:38:23.101Z,10.72
2024-02-23T15:41:51.038Z,10.73
2024-02-23T15:44:58.040Z,10.73
2024-02-23T15:48:05.193Z,10.74
2024-02-23T15:51:42.107Z,10.73
2024-02-23T15:55:09.026Z,10.72
2024-02-23T15:58:21.779Z,10.74
2024-02-23T16:01:50.920Z,10.73
2024-02-23T16:05:14.632Z,10.67
2024-02-23T16:08:46.219Z,10.61
2024-02-23T16:12:13.417Z,10.55
2024-02-23T16:16:00.337Z,10.49
2024-02-23T16:19:47.349Z,10.43
2024-02-23T16:22:55.976Z,10.41
2024-02-23T16:26:23.010Z,10.37
2024-02-23T16:30:09.841Z,10.31
2024-02-23T16:33:18.503Z,10.26
2024-02-23T16:36:46.139Z,10.22
2024-02-23T16:40:17.366Z,10.20
2024-02-23T16:43:57.842Z,10.21
2024-02-23T16:47:09.528Z,10.21
2024-02-23T16:49:36.777Z,10.21
2024-02-23T16:53:03.747Z,10.17
2024-02-23T16:55:43.875Z,10.10
2024-02-23T16:58:11.707Z,10.06
2024-02-23T17:00:48.367Z,10.06
2024-02-23T17:03:57.242Z,10.06
2024-02-23T17:07:26.171Z,10.04
2024-02-23T17:11:02.324Z,10.00
2024-02-23T17:14:12.145Z,9.93
2024-02-23T17:16:50.484Z,9.89
2024-02-23T17:19:58.206Z,9.89
2024-02-23T17:22:26.432Z,9.91
2024-02-23T17:24:56.095Z,9.93
2024-02-23T17:27:40.410Z,9.96
2024-02-23T17:30:08.983Z,9.97
2024-02-23T17:32:36.142Z,9.98
2024-02-23T17:35:04.832Z,9.99
2024-02-23T17:37:32.099Z,9.99
2024-02-23T17:39:59.351Z,9.99
2024-02-23T17:42:26.470Z,10.01
2024-02-23T17:44:53.726Z,10.02
2024-02-23T17:47:20.738Z,9.99
2024-02-23T17:49:49.619Z,9.94
2024-02-23T17:52:17.496Z,9.90
2024-02-23T17:54:45.031Z,9.86
2024-02-23T17:57:12.041Z,9.80
2024-02-23T17:59:40.031Z,9.72
2024-02-23T18:02:08.080Z,9.69
2024-02-23T18:04:35.433Z,9.69
2024-02-23T18:07:02.697Z,9.69
2024-02-23T18:09:29.945Z,9.69
2024-02-23T18:11:57.243Z,9.70
2024-02-23T18:14:24.473Z,9.70
2024-02-23T18:16:51.535Z,9.70
2024-02-23T18:19:19.326Z,9.69
2024-02-23T18:21:46.470Z,9.69
2024-02-23T18:24:13.670Z,9.67
2024-02-23T18:26:42.592Z,9.65
2024-02-23T18:29:11.124Z,9.62
2024-02-23T18:31:38.632Z,9.62
2024-02-23T18:34:06.180Z,9.62
2024-02-23T18:36:33.700Z,9.64
2024-02-23T18:39:00.997Z,9.66
2024-02-23T18:41:28.241Z,9.67
2024-02-23T18:43:55.689Z,9.69
2024-02-23T18:46:23.018Z,9.72
2024-02-23T18:48:50.178Z,9.74
2024-02-23T18:51:20.981Z,9.74
2024-02-23T18:53:50.261Z,9.73
2024-02-23T18:56:17.434Z,9.74
2024-02-23T18:58:44.688Z,9.73
2024-02-23T19:01:14.095Z,9.73
2024-02-23T19:03:41.969Z,9.74
2024-02-23T19:06:10.447Z,9.74
2024-02-23T19:08:37.696Z,9.73
2024-02-23T19:11:08.588Z,9.71
2024-02-23T19:13:36.120Z,9.70
2024-02-23T19:16:03.209Z,9.70
2024-02-23T19:18:30.400Z,9.71
2024-02-23T19:20:57.619Z,9.72
2024-02-23T19:23:24.776Z,9.73
2024-02-23T19:25:51.991Z,9.73
2024-02-23T19:28:19.058Z,9.74
2024-02-23T19:30:48.085Z,9.73
2024-02-23T19:33:15.660Z,9.74
2024-02-23T19:35:42.867Z,9.74
2024-02-23T19:38:10.327Z,9.68
2024-02-23T19:40:37.570Z,9.62
2024-02-23T19:43:05.040Z,9.58
2024-02-23T19:45:32.172Z,9.55
2024-02-23T19:47:59.480Z,9.53
2024-02-23T19:50:26.767Z,9.51
2024-02-23T19:52:53.993Z,9.50
2024-02-23T19:55:21.176Z,9.49
2024-02-23T19:57:48.814Z,9.48
2024-02-23T20:00:16.150Z,9.49
2024-02-23T20:02:43.617Z,9.46
2024-02-23T20:05:10.989Z,9.44
2024-02-23T20:07:38.408Z,9.46
2024-02-23T20:10:07.506Z,9.45
2024-02-23T20:12:34.902Z,9.48
2024-02-23T20:15:04.590Z,9.48
2024-02-23T20:17:37.947Z,9.48
2024-02-23T20:20:50.171Z,9.48
2024-02-23T20:23:41.998Z,9.46
2024-02-23T20:27:08.795Z,9.45
2024-02-23T20:30:16.491Z,9.40
2024-02-23T20:33:04.294Z,9.41
2024-02-23T20:36:11.140Z,9.37
2024-02-23T20:39:11.232Z,9.38
2024-02-23T20:42:44.800Z,9.43
2024-02-23T20:46:14.107Z,9.40
2024-02-23T20:50:02.039Z,9.42
2024-02-23T20:53:52.809Z,9.45
2024-02-23T20:57:40.757Z,9.45
2024-02-23T21:01:28.584Z,9.45
2024-02-23T21:05:17.015Z,9.31
2024-02-23T21:09:04.319Z,9.33
2024-02-23T21:12:52.121Z,9.35
2024-02-23T21:16:39.763Z,9.35
2024-02-23T21:20:27.175Z,9.31
2024-02-23T21:24:16.481Z,9.34
2024-02-23T21:27:43.638Z,9.36
2024-02-23T21:31:30.399Z,9.37
2024-02-23T21:34:57.232Z,9.37
2024-02-23T21:38:26.456Z,9.40
2024-02-23T21:42:15.789Z,9.41
2024-02-23T21:45:47.879Z,9.45
2024-02-23T21:49:14.670Z,9.49
2024-02-23T21:52:43.464Z,9.52
2024-02-23T21:56:30.224Z,9.54
2024-02-23T21:59:22.241Z,9.54
2024-02-23T22:02:49.094Z,9.53
2024-02-23T22:05:40.248Z,9.50
2024-02-23T22:09:08.372Z,9.51
2024-02-23T22:12:55.510Z,9.48
2024-02-23T22:16:42.921Z,9.39
2024-02-23T22:20:23.402Z,9.33
2024-02-23T22:23:52.187Z,9.30
2024-02-23T22:26:20.164Z,9.25
2024-02-23T22:29:47.216Z,9.24
2024-02-23T22:32:28.997Z,9.22
2024-02-23T22:34:59.156Z,9.23
2024-02-23T22:37:37.547Z,9.22
2024-02-23T22:40:06.847Z,9.21
2024-02-23T22:42:41.176Z,9.20
2024-02-23T22:45:11.274Z,9.19
2024-02-23T22:47:41.533Z,9.18
2024-02-23T22:50:09.353Z,9.19
2024-02-23T22:52:38.421Z,9.19
2024-02-23T22:55:25.683Z,9.16
2024-02-23T22:57:53.533Z,9.16
2024-02-23T23:00:22.561Z,9.16
2024-02-23T23:03:30.635Z,9.18
2024-02-23T23:05:57.799Z,9.22
2024-02-23T23:09:13.547Z,9.22
2024-02-23T23:12:40.942Z,9.23
2024-02-23T23:15:49.852Z,9.22
2024-02-23T23:19:07.546Z,9.22
2024-02-23T23:22:19.686Z,9.23
2024-02-23T23:25:12.143Z,9.21
2024-02-23T23:27:42.569Z,9.22
2024-02-23T23:30:19.686Z,9.20
2024-02-23T23:33:06.226Z,9.16
2024-02-23T23:35:54.372Z,9.15
2024-02-23T23:39:24.851Z,9.12
2024-02-23T23:43:12.657Z,9.06
2024-02-23T23:47:01.683Z,9.04
2024-02-23T23:50:50.185Z,9.06
2024-02-23T23:58:22.514Z,9.06
